Time;durP1;ratioP1;P1;durP2;ratioP2;P2;SDS_P1;SDS_P2;PMS_P1;PMS_P2;Temp;Humidity;BMP_temperature;BMP_pressure;BME280_temperature;BME280_humidity;BME280_pressure;Samples;Min_cycle;Max_cycle;Signal;HPM_P1;HPM_P2
2023/06/12 00:01:29;;;;;;;5.95;5.40;;;;;;;21.58;46.99;101421.28;4854628;29;20743;-78
2023/06/12 00:03:57;;;;;;;6.38;5.53;;;;;;;21.57;47.45;101424.81;4854189;29;20497;-79
2023/06/12 00:06:23;;;;;;;6.80;5.53;;;;;;;21.54;47.30;101431.03;4853758;29;20210;-79
2023/06/12 00:08:48;;;;;;;6.40;5.80;;;;;;;21.50;47.12;101428.41;4853344;29;20025;-78
2023/06/12 00:11:14;;;;;;;6.65;5.68;;;;;;;21.46;47.43;101422.25;4854293;29;20070;-79
2023/06/12 00:13:41;;;;;;;8.35;5.65;;;;;;;21.43;47.13;101422.31;4853539;29;20048;-79
2023/06/12 00:16:07;;;;;;;6.43;5.75;;;;;;;21.38;47.93;101424.16;4860992;29;20140;-79
2023/06/12 00:18:33;;;;;;;6.32;5.55;;;;;;;21.25;47.69;101423.41;4853886;29;20041;-79
2023/06/12 00:20:58;;;;;;;7.75;5.88;;;;;;;21.24;48.42;101426.09;4853346;29;20481;-78
2023/06/12 00:23:24;;;;;;;8.45;6.03;;;;;;;21.17;48.63;101426.16;4854424;29;20047;-78
2023/06/12 00:25:49;;;;;;;6.25;5.65;;;;;;;21.10;48.69;101428.88;4853130;29;20032;-77
2023/06/12 00:28:14;;;;;;;6.70;5.70;;;;;;;21.05;48.59;101423.63;4852993;29;20480;-78
2023/06/12 00:30:40;;;;;;;6.47;5.70;;;;;;;20.97;49.26;101431.66;4854366;29;20045;-78
2023/06/12 00:33:05;;;;;;;6.93;6.22;;;;;;;20.93;49.13;101432.59;4854039;29;20033;-78
2023/06/12 00:35:30;;;;;;;6.70;5.70;;;;;;;20.86;49.18;101436.19;4853775;29;20041;-78
2023/06/12 00:37:56;;;;;;;6.60;5.90;;;;;;;20.73;48.64;101424.84;4853602;29;20093;-79
2023/06/12 00:40:21;;;;;;;7.22;6.10;;;;;;;20.67;49.64;101428.41;4852854;29;20493;-78
2023/06/12 00:42:49;;;;;;;6.60;6.00;;;;;;;20.58;49.51;101427.56;4854285;29;20080;-79
2023/06/12 00:45:16;;;;;;;6.63;6.03;;;;;;;20.56;50.07;101424.94;4850027;29;20122;-79
2023/06/12 00:47:42;;;;;;;6.65;6.00;;;;;;;20.53;50.63;101421.47;4852948;29;20052;-79
2023/06/12 00:50:12;;;;;;;6.95;5.75;;;;;;;20.53;50.62;101422.31;4850945;29;20036;-78
2023/06/12 00:52:44;;;;;;;6.35;5.75;;;;;;;20.47;50.15;101422.38;4854030;29;20034;-79
2023/06/12 00:55:09;;;;;;;6.45;5.65;;;;;;;20.33;49.50;101425.13;4853354;29;20163;-79
2023/06/12 00:57:36;;;;;;;7.28;6.30;;;;;;;20.28;49.75;101422.53;4854435;29;20157;-79
2023/06/12 01:00:05;;;;;;;7.20;6.47;;;;;;;20.21;50.78;101418.16;4852693;29;20120;-79
2023/06/12 01:02:31;;;;;;;7.68;6.35;;;;;;;20.17;50.67;101416.41;4861507;29;20025;-79
2023/06/12 01:04:56;;;;;;;8.07;6.03;;;;;;;20.07;50.20;101422.66;4851303;29;20029;-79
2023/06/12 01:08:05;;;;;;;11.57;6.20;;;;;;;20.06;50.30;101413.88;4851760;29;20504;-78
2023/06/12 01:10:44;;;;;;;6.47;5.80;;;;;;;20.02;51.00;101424.47;4851215;29;20025;-78
2023/06/12 01:13:11;;;;;;;6.63;5.93;;;;;;;19.99;51.77;101422.72;4867883;29;20030;-79
2023/06/12 01:15:37;;;;;;;6.50;5.90;;;;;;;19.96;51.68;101425.41;4851727;29;20537;-79
2023/06/12 01:18:03;;;;;;;6.82;6.10;;;;;;;19.96;51.24;101425.41;4853075;29;20073;-78
2023/06/12 01:20:29;;;;;;;7.03;6.32;;;;;;;19.92;51.11;101419.22;4852951;29;20077;-78
2023/06/12 01:22:59;;;;;;;6.97;6.28;;;;;;;19.92;51.72;101418.38;4852915;29;20060;-79
2023/06/12 01:26:00;;;;;;;6.80;6.20;;;;;;;19.88;51.12;101422.78;4854038;29;20044;-78
2023/06/12 01:28:57;;;;;;;6.95;6.32;;;;;;;19.85;50.91;101428.09;4850287;29;20066;-79
2023/06/12 01:31:31;;;;;;;7.53;6.13;;;;;;;19.78;50.70;101428.97;4847558;29;20045;-78
2023/06/12 01:34:07;;;;;;;6.88;6.07;;;;;;;19.76;51.36;101430.75;4852691;29;20127;-79
2023/06/12 01:36:36;;;;;;;6.88;6.18;;;;;;;19.73;50.53;101428.13;4853858;29;20565;-78
2023/06/12 01:39:04;;;;;;;7.55;6.20;;;;;;;19.72;51.16;101431.66;4853029;29;20048;-78
2023/06/12 01:41:31;;;;;;;8.00;6.38;;;;;;;19.66;51.27;101426.41;4853189;29;20033;-78
2023/06/12 01:43:57;;;;;;;6.70;6.10;;;;;;;19.67;51.52;101426.41;4850658;29;20037;-78
2023/06/12 01:46:22;;;;;;;7.30;6.60;;;;;;;19.64;51.28;101429.94;4852868;29;20036;-78
2023/06/12 01:48:48;;;;;;;7.40;6.70;;;;;;;19.63;51.15;101422.88;4850616;29;20032;-78
2023/06/12 01:51:13;;;;;;;9.15;6.53;;;;;;;19.61;52.08;101429.94;4850923;29;20053;-78
2023/06/12 01:53:39;;;;;;;7.18;6.47;;;;;;;19.57;50.92;101422.91;4852649;29;20106;-78
2023/06/12 01:56:05;;;;;;;7.75;6.97;;;;;;;19.59;51.88;101433.47;4851944;29;20041;-78
2023/06/12 01:58:30;;;;;;;8.25;6.97;;;;;;;19.56;51.54;101426.44;4853573;29;20026;-78
2023/06/12 02:00:55;;;;;;;8.02;7.22;;;;;;;19.52;52.32;101431.75;4850345;29;20044;-78
2023/06/12 02:03:23;;;;;;;8.02;7.22;;;;;;;19.48;52.83;101428.25;4851748;29;20109;-78
2023/06/12 02:05:49;;;;;;;7.82;7.03;;;;;;;19.44;51.98;101434.44;4852552;29;20525;-78
2023/06/12 02:08:14;;;;;;;8.20;7.40;;;;;;;19.42;51.38;101433.53;4853543;29;20036;-78
2023/06/12 02:10:39;;;;;;;8.02;6.80;;;;;;;19.41;51.56;101435.31;4853383;29;20033;-78
2023/06/12 02:13:05;;;;;;;8.10;7.40;;;;;;;19.41;51.92;101434.44;4852566;29;20037;-78
2023/06/12 02:15:30;;;;;;;7.65;6.90;;;;;;;19.41;52.22;101429.16;4851110;29;20038;-78
2023/06/12 02:17:56;;;;;;;8.73;6.93;;;;;;;19.39;52.06;101428.25;4852379;29;20477;-78
2023/06/12 02:20:21;;;;;;;8.75;7.05;;;;;;;19.34;52.18;101430.94;4854511;29;20048;-78
2023/06/12 02:22:46;;;;;;;7.50;6.80;;;;;;;19.35;52.33;101431.78;4855013;29;20054;-78
2023/06/12 02:25:12;;;;;;;7.90;7.20;;;;;;;19.27;52.23;101419.50;4856205;29;20056;-78
2023/06/12 02:27:37;;;;;;;8.18;7.45;;;;;;;19.25;52.78;101421.28;4854174;29;20421;-78
2023/06/12 02:30:03;;;;;;;8.02;7.32;;;;;;;19.22;53.00;101413.34;4854909;29;20440;-77
2023/06/12 02:32:28;;;;;;;8.63;7.40;;;;;;;19.19;52.70;101429.22;4855801;29;20086;-78
2023/06/12 02:34:54;;;;;;;8.38;7.50;;;;;;;19.14;53.75;101423.06;4855570;29;20033;-78
2023/06/12 02:37:20;;;;;;;9.05;8.15;;;;;;;19.08;53.84;101420.44;4856555;29;20034;-78
2023/06/12 02:39:45;;;;;;;8.48;7.68;;;;;;;19.04;53.30;101421.31;4854292;29;20053;-78
2023/06/12 02:42:10;;;;;;;8.65;7.75;;;;;;;19.00;53.58;101416.94;4854637;29;20029;-78
2023/06/12 02:44:36;;;;;;;8.60;7.80;;;;;;;18.97;53.46;101419.59;4856989;29;20033;-78
2023/06/12 02:47:02;;;;;;;8.70;7.90;;;;;;;18.96;53.76;101416.06;4852754;29;20065;-78
2023/06/12 02:49:29;;;;;;;8.73;7.93;;;;;;;18.91;53.44;101421.34;4856239;29;20031;-78
2023/06/12 02:51:56;;;;;;;8.50;7.70;;;;;;;18.90;53.73;101423.97;4854538;29;20046;-78
2023/06/12 02:54:23;;;;;;;8.18;7.40;;;;;;;18.84;54.26;101422.22;4856093;29;20647;-78
2023/06/12 02:56:49;;;;;;;8.20;7.28;;;;;;;18.86;53.68;101411.66;4856008;29;20040;-78
2023/06/12 02:59:16;;;;;;;8.88;7.88;;;;;;;18.80;54.73;101424.84;4852130;29;20025;-78
2023/06/12 03:01:45;;;;;;;8.02;7.25;;;;;;;18.78;54.03;101419.56;4853893;29;20754;-78
2023/06/12 03:04:12;;;;;;;8.63;7.82;;;;;;;18.74;53.93;101417.81;4869748;29;20040;-78
2023/06/12 03:06:39;;;;;;;8.40;7.60;;;;;;;18.71;54.12;101417.81;4853295;29;20057;-78
2023/06/12 03:09:05;;;;;;;8.75;7.85;;;;;;;18.67;54.73;101414.31;4854647;29;20025;-78
2023/06/12 03:11:32;;;;;;;8.93;8.02;;;;;;;18.63;55.06;101415.19;4854132;29;20056;-78
2023/06/12 03:13:57;;;;;;;8.57;7.78;;;;;;;18.59;54.93;101416.06;4855219;29;20061;-78
2023/06/12 03:16:24;;;;;;;7.70;6.90;;;;;;;18.55;55.88;101422.22;4853729;29;20021;-78
2023/06/12 03:18:49;;;;;;;8.55;7.75;;;;;;;18.48;54.97;101413.44;4854774;29;20063;-78
2023/06/12 03:21:15;;;;;;;8.30;7.50;;;;;;;18.47;55.23;101416.09;4853498;29;20090;-78
2023/06/12 03:23:41;;;;;;;7.95;7.25;;;;;;;18.46;55.64;101422.25;4855076;29;20485;-78
2023/06/12 03:26:06;;;;;;;8.00;7.20;;;;;;;18.47;55.87;101424.88;4855153;29;20111;-78
2023/06/12 03:28:34;;;;;;;8.57;7.53;;;;;;;18.42;55.69;101430.16;4854804;29;20506;-78
2023/06/12 03:31:00;;;;;;;12.70;7.65;;;;;;;18.39;55.92;101422.25;4852918;29;20653;-78
2023/06/12 03:33:25;;;;;;;8.07;7.28;;;;;;;18.35;56.16;101427.50;4855066;29;20034;-78
2023/06/12 03:35:50;;;;;;;8.25;7.00;;;;;;;18.33;56.47;101424.00;4853137;29;20112;-78
2023/06/12 03:38:16;;;;;;;7.78;6.97;;;;;;;18.30;57.14;101427.50;4854864;29;20029;-78
2023/06/12 03:40:41;;;;;;;7.90;7.18;;;;;;;18.25;56.22;101435.41;4855323;29;20026;-78
2023/06/12 03:43:06;;;;;;;7.75;6.95;;;;;;;18.24;56.91;101438.06;4855369;29;20507;-78
2023/06/12 03:45:32;;;;;;;7.93;6.95;;;;;;;18.16;56.38;101434.50;4854579;29;20037;-78
2023/06/12 03:47:57;;;;;;;8.50;7.70;;;;;;;18.10;56.27;101439.78;4852330;29;20021;-78
2023/06/12 03:50:23;;;;;;;8.85;7.30;;;;;;;18.08;56.84;101437.16;4850290;29;20462;-78
2023/06/12 03:52:49;;;;;;;8.38;7.55;;;;;;;18.06;56.51;101436.25;4854957;29;20568;-78
2023/06/12 03:55:14;;;;;;;8.10;7.30;;;;;;;18.02;57.37;101442.41;4853685;29;20025;-78
2023/06/12 03:57:39;;;;;;;8.52;7.00;;;;;;;18.03;57.22;101441.50;4861031;29;20042;-78
2023/06/12 04:00:06;;;;;;;9.02;8.13;;;;;;;17.92;57.21;101433.59;4854930;29;20041;-78
2023/06/12 04:02:31;;;;;;;8.45;7.65;;;;;;;17.94;57.83;101441.50;4855028;29;20093;-78
2023/06/12 04:04:56;;;;;;;8.88;8.05;;;;;;;17.94;58.75;101436.22;4854881;29;20029;-78
2023/06/12 04:07:22;;;;;;;9.23;8.32;;;;;;;17.93;57.68;101452.91;4851605;29;20037;-78
2023/06/12 04:09:47;;;;;;;9.30;7.93;;;;;;;17.92;58.58;101451.19;4853473;29;20074;-78
2023/06/12 04:12:13;;;;;;;8.75;7.95;;;;;;;17.91;57.77;101460.81;4854501;29;20033;-78
2023/06/12 04:14:38;;;;;;;9.35;8.15;;;;;;;17.88;58.65;101456.38;4853123;29;20466;-78
2023/06/12 04:17:03;;;;;;;8.90;8.10;;;;;;;17.88;59.17;101456.38;4854634;29;20286;-78
2023/06/12 04:19:29;;;;;;;9.13;8.20;;;;;;;17.87;59.25;101452.00;4852544;29;20494;-78
2023/06/12 04:21:54;;;;;;;8.95;8.00;;;;;;;17.86;59.76;101458.16;4851518;29;20392;-78
2023/06/12 04:24:21;;;;;;;9.02;8.07;;;;;;;17.85;60.10;101460.78;4854342;29;20037;-78
2023/06/12 04:26:48;;;;;;;9.13;8.20;;;;;;;17.83;59.70;101460.78;4854032;29;20611;-78
2023/06/12 04:29:15;;;;;;;8.75;7.95;;;;;;;17.81;59.16;101459.88;4853336;29;20503;-78
2023/06/12 04:31:40;;;;;;;9.40;8.55;;;;;;;17.79;59.03;101461.63;4853871;29;20446;-78
2023/06/12 04:34:07;;;;;;;8.70;7.90;;;;;;;17.83;60.36;101462.50;4853172;29;20025;-78
2023/06/12 04:36:37;;;;;;;9.40;8.43;;;;;;;17.80;60.11;101454.59;4853637;29;20505;-78
2023/06/12 04:39:04;;;;;;;9.75;8.85;;;;;;;17.79;60.79;101459.00;4852014;29;20556;-77
2023/06/12 04:41:32;;;;;;;9.40;8.50;;;;;;;17.76;59.89;101459.00;4853293;29;20029;-78
2023/06/12 04:44:03;;;;;;;9.65;8.70;;;;;;;17.77;60.16;101449.31;4854166;29;20517;-78
2023/06/12 04:46:28;;;;;;;10.07;9.07;;;;;;;17.77;60.67;101452.84;4854600;29;20040;-77
2023/06/12 04:48:54;;;;;;;10.18;9.15;;;;;;;17.79;60.76;101458.13;4853779;29;20464;-78
2023/06/12 04:51:19;;;;;;;9.95;8.95;;;;;;;17.80;61.83;101457.22;4853088;29;20122;-78
2023/06/12 04:53:47;;;;;;;10.68;9.68;;;;;;;17.77;60.65;101458.13;4853453;29;20081;-78
2023/06/12 04:56:20;;;;;;;11.82;10.10;;;;;;;17.71;61.12;101464.25;4851131;29;20057;-78
2023/06/12 04:58:45;;;;;;;10.80;9.73;;;;;;;17.72;61.42;101459.84;4852936;29;20036;-78
2023/06/12 05:01:11;;;;;;;10.20;9.18;;;;;;;17.75;62.61;101465.13;4853158;29;20408;-78
2023/06/12 05:03:38;;;;;;;9.75;8.77;;;;;;;17.76;62.26;101466.91;4853555;29;20040;-78
2023/06/12 05:06:05;;;;;;;11.15;10.05;;;;;;;17.79;62.92;101466.91;4853336;29;20115;-78
2023/06/12 05:08:30;;;;;;;10.82;9.73;;;;;;;17.80;62.74;101476.59;4854082;29;20116;-78
2023/06/12 05:10:56;;;;;;;11.68;10.48;;;;;;;17.82;62.87;101472.19;4852303;29;20116;-78
2023/06/12 05:13:21;;;;;;;12.10;10.95;;;;;;;17.84;62.98;101478.38;4853784;29;20037;-78
2023/06/12 05:15:47;;;;;;;12.85;11.50;;;;;;;17.87;63.06;101464.28;4853553;29;20029;-78
2023/06/12 05:18:13;;;;;;;12.95;11.65;;;;;;;17.89;63.22;101462.56;4850794;29;20030;-78
2023/06/12 05:20:38;;;;;;;13.50;12.25;;;;;;;17.89;63.79;101468.69;4851107;29;20774;-78
2023/06/12 05:23:05;;;;;;;13.15;11.90;;;;;;;17.88;62.43;101468.69;4853060;29;20108;-78
2023/06/12 05:25:30;;;;;;;14.25;12.90;;;;;;;17.88;62.57;101472.19;4851240;29;20114;-78
2023/06/12 05:27:56;;;;;;;14.32;12.52;;;;;;;17.91;64.11;101471.38;4853063;29;20028;-78
2023/06/12 05:30:21;;;;;;;13.88;12.63;;;;;;;17.93;63.29;101466.09;4853703;29;20061;-78
2023/06/12 05:32:46;;;;;;;14.93;13.50;;;;;;;17.96;64.07;101479.28;4851868;29;20062;-78
2023/06/12 05:35:12;;;;;;;14.25;12.85;;;;;;;18.01;65.15;101474.91;4852932;29;20042;-78
2023/06/12 05:37:37;;;;;;;12.23;11.02;;;;;;;18.06;61.93;101474.06;4852937;29;20493;-78
2023/06/12 05:40:05;;;;;;;12.18;11.07;;;;;;;18.13;62.17;101466.16;4853981;29;20136;-78
2023/06/12 05:42:30;;;;;;;14.23;11.55;;;;;;;18.18;64.46;101460.03;4853498;29;20081;-78
2023/06/12 05:44:56;;;;;;;12.93;10.98;;;;;;;18.22;63.61;101459.16;4851749;29;20041;-78
2023/06/12 05:47:21;;;;;;;13.15;11.25;;;;;;;18.25;63.42;101451.25;4853239;29;20629;-78
2023/06/12 05:49:46;;;;;;;11.40;10.20;;;;;;;18.33;61.40;101453.88;4852124;29;20545;-78
2023/06/12 05:52:12;;;;;;;11.35;9.93;;;;;;;18.37;62.75;101457.41;4853677;29;20477;-78
2023/06/12 05:54:37;;;;;;;10.35;9.35;;;;;;;18.42;59.06;101453.91;4854268;29;20033;-78
2023/06/12 05:57:03;;;;;;;10.75;9.68;;;;;;;18.55;61.48;101460.06;4857222;29;20036;-78
2023/06/12 05:59:28;;;;;;;11.77;9.35;;;;;;;18.70;61.95;101455.69;4855584;29;20025;-78
2023/06/12 06:01:57;;;;;;;16.73;9.80;;;;;;;18.82;60.97;101463.56;4855929;29;20441;-78
2023/06/12 06:04:22;;;;;;;12.57;8.80;;;;;;;18.93;59.09;101463.63;4856015;29;20037;-78
2023/06/12 06:06:48;;;;;;;14.75;9.07;;;;;;;19.07;60.56;101461.84;4856398;29;20037;-78
2023/06/12 06:09:16;;;;;;;9.25;8.38;;;;;;;19.19;58.95;101458.28;4856186;29;20432;-78
2023/06/12 06:11:42;;;;;;;11.23;8.60;;;;;;;19.34;60.80;101459.13;4857177;29;20059;-78
2023/06/12 06:14:07;;;;;;;9.05;8.15;;;;;;;19.48;60.35;101456.41;4857018;29;20289;-78
2023/06/12 06:16:33;;;;;;;9.60;7.93;;;;;;;19.57;59.26;101456.41;4855809;29;20040;-78
2023/06/12 06:18:58;;;;;;;9.77;7.43;;;;;;;19.69;58.51;101456.34;4855465;29;20698;-78
2023/06/12 06:21:23;;;;;;;8.93;7.50;;;;;;;19.88;55.95;101470.38;4855951;29;20049;-78
2023/06/12 06:23:48;;;;;;;7.18;6.47;;;;;;;20.01;57.31;101462.41;4856048;29;20041;-78
2023/06/12 06:26:14;;;;;;;8.05;7.07;;;;;;;20.09;57.69;101469.41;4856965;29;20100;-78
2023/06/12 06:28:39;;;;;;;8.35;6.78;;;;;;;20.20;56.49;101465.81;4855716;29;20116;-78
2023/06/12 06:31:06;;;;;;;8.00;7.25;;;;;;;20.26;56.33;101471.94;4856832;29;20405;-78
2023/06/12 06:33:32;;;;;;;13.75;12.40;;;;;;;20.35;56.58;101465.72;4855925;29;20485;-78
2023/06/12 06:35:57;;;;;;;24.42;21.92;;;;;;;20.44;56.36;101473.56;4855364;29;20069;-78
2023/06/12 06:38:24;;;;;;;8.13;7.38;;;;;;;20.50;56.41;101464.72;4855929;29;20568;-78
2023/06/12 06:40:50;;;;;;;8.70;7.78;;;;;;;20.56;55.53;101469.09;4856093;29;20115;-78
2023/06/12 06:43:15;;;;;;;8.25;6.70;;;;;;;20.64;56.07;101465.47;4855771;29;20112;-78
2023/06/12 06:45:41;;;;;;;9.57;7.38;;;;;;;20.72;57.50;101470.75;4854555;29;20034;-78
2023/06/12 06:48:07;;;;;;;9.05;7.30;;;;;;;20.79;56.79;101471.56;4856043;29;20099;-78
2023/06/12 06:50:32;;;;;;;7.47;6.70;;;;;;;20.89;57.72;101472.38;4855972;29;20133;-77
2023/06/12 06:52:58;;;;;;;8.07;7.25;;;;;;;21.02;54.99;101468.72;4854019;29;20021;-78
2023/06/12 06:55:23;;;;;;;8.43;7.25;;;;;;;21.20;56.26;101472.94;4855448;29;20094;-78
2023/06/12 06:57:50;;;;;;;8.57;7.60;;;;;;;21.25;52.28;101468.47;4853167;29;20041;-78
2023/06/12 07:00:16;;;;;;;8.95;7.18;;;;;;;21.37;55.18;101470.97;4852904;29;20038;-78
2023/06/12 07:02:43;;;;;;;7.65;6.50;;;;;;;21.49;53.69;101469.97;4854885;29;20047;-77
2023/06/12 07:05:08;;;;;;;6.88;5.90;;;;;;;21.61;53.75;101463.69;4854969;29;20036;-78
2023/06/12 07:07:33;;;;;;;6.95;6.15;;;;;;;21.76;51.95;101462.59;4854769;29;20038;-78
2023/06/12 07:09:59;;;;;;;7.18;6.47;;;;;;;21.85;52.90;101464.25;4855196;29;20390;-80
2023/06/12 07:12:25;;;;;;;7.32;6.25;;;;;;;21.94;50.33;101456.19;4854017;29;20034;-80
2023/06/12 07:14:50;;;;;;;6.82;5.53;;;;;;;22.04;50.50;101455.16;4855145;29;20061;-80
2023/06/12 07:17:15;;;;;;;7.97;5.45;;;;;;;22.20;51.17;101450.50;4855889;29;20033;-79
2023/06/12 07:19:41;;;;;;;6.82;5.50;;;;;;;22.34;48.77;101458.25;4854434;29;20037;-80
2023/06/12 07:22:07;;;;;;;8.07;5.65;;;;;;;22.50;48.89;101450.06;4855812;29;20158;-80
2023/06/12 07:24:32;;;;;;;6.43;5.60;;;;;;;22.58;48.63;101448.16;4938908;23;20016;-80
2023/06/12 07:26:57;;;;;;;6.85;5.20;;;;;;;22.75;49.52;101448.75;5100226;23;20072;-76
2023/06/12 07:29:23;;;;;;;6.40;5.25;;;;;;;22.85;48.86;101445.91;4863251;29;20021;-76
2023/06/12 07:31:49;;;;;;;7.20;5.32;;;;;;;22.91;46.07;101451.09;4862375;29;20503;-77
2023/06/12 07:34:16;;;;;;;6.93;5.97;;;;;;;22.92;46.19;101451.06;4863872;29;20025;-76
2023/06/12 07:36:42;;;;;;;6.88;5.63;;;;;;;22.97;48.06;101445.69;4862805;29;20572;-76
2023/06/12 07:39:07;;;;;;;7.32;5.60;;;;;;;23.06;45.88;101444.66;4862176;29;20037;-76
2023/06/12 07:41:32;;;;;;;6.18;5.57;;;;;;;23.23;47.40;101454.97;4862480;29;20521;-76
2023/06/12 07:43:57;;;;;;;6.35;5.75;;;;;;;23.31;45.92;101442.41;4860410;29;20121;-76
2023/06/12 07:46:23;;;;;;;10.30;5.63;;;;;;;23.43;47.42;101443.94;4858940;29;20060;-76
2023/06/12 07:48:48;;;;;;;6.20;5.60;;;;;;;23.59;46.05;101442.72;4954884;23;20124;-81
2023/06/12 07:51:14;;;;;;;6.25;5.50;;;;;;;23.75;45.96;101443.28;4883199;23;20057;-76
2023/06/12 07:53:39;;;;;;;6.22;5.63;;;;;;;23.86;45.88;101447.47;4852268;29;20086;-76
2023/06/12 07:56:06;;;;;;;7.07;5.80;;;;;;;23.90;47.00;101435.91;5029575;23;21025;-76
2023/06/12 07:58:54;;;;;;;;;;;;;;;;;;;;;
2023/06/12 08:01:39;;;;;;;;;;;;;;;;;;;;;
2023/06/12 08:04:21;;;;;;;;;;;;;;;;;;;;;
2023/06/12 08:06:50;;;;;;;6.72;5.65;;;;;;;24.56;46.57;101436.94;4887097;29;20064;-96
2023/06/12 08:09:39;;;;;;;;;;;;;;;;;;;;;
2023/06/12 08:12:05;;;;;;;5.32;4.82;;;;;;;24.77;43.42;101438.22;4891903;23;20496;-75
2023/06/12 08:14:30;;;;;;;5.85;5.20;;;;;;;24.88;45.25;101445.06;4857463;29;20049;-77
2023/06/12 08:19:26;;;;;;;7.07;5.32;;;;;;;25.13;45.25;101442.63;4908752;23;20066;-77
2023/06/12 08:21:52;;;;;;;5.78;5.13;;;;;;;25.14;41.70;101445.25;4859574;23;20063;-77
2023/06/12 08:24:17;;;;;;;6.20;5.18;;;;;;;25.16;41.07;101440.72;4938454;23;20123;-77
2023/06/12 08:26:43;;;;;;;6.47;5.45;;;;;;;25.23;41.42;101440.56;4850288;29;20157;-81
2023/06/12 08:29:08;;;;;;;7.28;5.25;;;;;;;25.31;41.63;101434.13;4848987;29;20029;-81
2023/06/12 08:31:34;;;;;;;8.27;5.50;;;;;;;25.30;42.14;101435.03;4847434;29;20405;-81
2023/06/12 08:33:59;;;;;;;5.38;4.88;;;;;;;25.60;43.78;101432.38;4847202;29;20040;-82
2023/06/12 08:36:26;;;;;;;6.53;5.35;;;;;;;25.75;41.64;101446.19;4848701;29;20074;-81
2023/06/12 08:38:51;;;;;;;6.03;5.13;;;;;;;25.91;44.09;101435.91;4847782;29;20033;-74
2023/06/12 08:41:20;;;;;;;6.93;5.35;;;;;;;25.97;42.22;101433.03;4848319;29;20049;-74
2023/06/12 08:43:47;;;;;;;7.15;4.82;;;;;;;26.01;40.95;101434.75;4845542;29;20037;-73
2023/06/12 08:46:16;;;;;;;6.50;5.82;;;;;;;25.95;39.90;101435.75;4963304;23;20546;-75
2023/06/12 08:48:43;;;;;;;5.75;5.15;;;;;;;25.91;39.99;101431.47;5109434;23;20520;-74
2023/06/12 08:51:09;;;;;;;5.97;5.20;;;;;;;26.17;42.52;101424.44;4885167;23;20068;-74
2023/06/12 08:53:35;;;;;;;6.90;5.28;;;;;;;26.34;40.26;101431.91;4854203;29;20054;-75
2023/06/12 08:56:00;;;;;;;8.57;5.32;;;;;;;26.33;39.64;101423.03;4856542;29;20033;-75
2023/06/12 08:58:26;;;;;;;7.10;5.20;;;;;;;26.57;41.81;101427.59;5032468;23;20148;-76
2023/06/12 09:03:30;;;;;;;5.90;5.03;;;;;;;27.00;40.91;101416.28;5075094;23;20053;-76
2023/06/12 09:05:59;;;;;;;7.32;5.25;;;;;;;27.38;42.32;101418.50;5009946;23;20156;-76
2023/06/12 09:10:55;;;;;;;5.68;5.10;;;;;;;27.55;36.72;101412.53;4923715;23;20504;-75
2023/06/12 09:15:51;;;;;;;5.15;4.75;;;;;;;27.71;39.09;101415.47;4938753;23;20114;-76
2023/06/12 09:20:51;;;;;;;5.53;5.03;;;;;;;27.56;37.48;101415.13;5226556;23;20035;-76
2023/06/12 09:23:17;;;;;;;5.90;5.30;;;;;;;27.54;36.65;101406.28;4944897;23;20045;-77
2023/06/12 09:25:46;;;;;;;7.03;5.45;;;;;;;27.53;38.03;101407.22;4856946;29;20847;-78
2023/06/12 09:28:11;;;;;;;;;;;;;;;27.75;38.87;101403.69;5087548;23;20520;-77
2023/06/12 09:30:41;;;;;;;5.68;5.07;;;;;;;28.08;38.62;101405.97;4940025;23;19928;-77
2023/06/12 09:33:07;;;;;;;7.05;5.28;;;;;;;28.17;35.93;101405.63;5148774;23;20028;-76
2023/06/12 09:35:33;;;;;;;8.98;5.63;;;;;;;28.30;36.63;101407.75;5036376;23;20024;-77
2023/06/12 09:37:58;;;;;;;5.72;5.22;;;;;;;28.33;36.05;101402.28;5083206;23;20340;-76
2023/06/12 09:42:54;;;;;;;6.15;4.80;;;;;;;28.41;39.33;101413.56;4848513;29;20058;-77
2023/06/12 09:45:23;;;;;;;5.55;5.05;;;;;;;28.64;34.40;101403.69;5116312;23;1135381;-77
2023/06/12 09:47:50;;;;;;;5.78;5.28;;;;;;;28.75;37.43;101406.75;4980420;23;20940;-77
2023/06/12 09:50:16;;;;;;;5.70;5.18;;;;;;;29.13;39.49;101412.25;5018753;23;20069;-76
2023/06/12 09:52:57;;;;;;;6.65;5.18;;;;;;;29.28;37.64;101405.31;4859878;29;20041;-77
2023/06/12 09:55:26;;;;;;;6.45;5.20;;;;;;;29.24;33.83;101401.03;4859714;29;20089;-77
2023/06/12 09:57:52;;;;;;;6.53;5.15;;;;;;;29.24;35.10;101401.94;4865113;29;20180;-77
2023/06/12 10:00:19;;;;;;;5.47;4.97;;;;;;;29.27;36.03;101401.78;4864432;29;20045;-77
2023/06/12 10:02:53;;;;;;;5.93;5.32;;;;;;;29.11;36.81;101420.38;4864828;29;20611;-77
2023/06/12 10:05:23;;;;;;;5.70;5.10;;;;;;;29.01;38.15;101412.78;4864178;29;20044;-77
2023/06/12 10:07:53;;;;;;;6.57;5.32;;;;;;;29.24;38.07;101414.44;4864001;29;20041;-77
2023/06/12 10:10:20;;;;;;;6.93;5.22;;;;;;;29.31;35.17;101408.75;4865071;29;20043;-77
2023/06/12 10:12:46;;;;;;;6.20;5.05;;;;;;;29.43;35.79;101404.63;4864872;29;20037;-77
2023/06/12 10:15:12;;;;;;;5.53;4.75;;;;;;;29.41;35.60;101405.63;4865748;29;20031;-77
2023/06/12 10:17:40;;;;;;;6.03;4.90;;;;;;;29.42;36.12;101402.00;4865079;29;20029;-77
2023/06/12 10:20:08;;;;;;;6.10;5.50;;;;;;;29.58;35.37;101397.63;4864285;29;20165;-77
2023/06/12 10:22:34;;;;;;;5.22;4.63;;;;;;;29.80;33.89;101388.56;4864359;29;20066;-77
2023/06/12 10:25:00;;;;;;;6.22;5.22;;;;;;;29.75;34.24;101388.78;4864452;29;20025;-76
2023/06/12 10:27:26;;;;;;;6.88;5.30;;;;;;;29.67;33.06;101394.50;4864633;29;20491;-77
2023/06/12 10:29:57;;;;;;;6.00;4.90;;;;;;;29.48;31.89;101390.97;4863846;29;20029;-76
2023/06/12 10:32:23;;;;;;;5.28;4.78;;;;;;;29.20;32.79;101408.34;4863636;29;20033;-76
2023/06/12 10:34:53;;;;;;;8.25;5.25;;;;;;;28.87;33.00;101400.88;4863565;29;20029;-76
2023/06/12 10:37:22;;;;;;;6.10;5.25;;;;;;;28.89;34.32;101398.97;4861139;29;20099;-77
2023/06/12 10:39:59;;;;;;;6.25;5.35;;;;;;;29.02;33.75;101388.56;4856225;29;20480;-75
2023/06/12 10:42:52;;;;;;;5.57;5.07;;;;;;;29.13;33.07;101377.34;5011506;23;20656;-76
2023/06/12 10:45:20;;;;;;;6.60;5.20;;;;;;;29.24;35.83;101379.56;5014297;23;20061;-76
2023/06/12 10:48:09;;;;;;;6.35;5.78;;;;;;;29.27;33.48;101383.00;4992004;23;20065;-73
2023/06/12 10:50:43;;;;;;;5.60;5.10;;;;;;;29.46;31.63;101376.72;4846655;29;20026;-74
2023/06/12 10:53:14;;;;;;;6.10;5.50;;;;;;;29.56;31.38;101367.31;4848385;29;20038;-75
2023/06/12 10:55:43;;;;;;;7.40;5.07;;;;;;;29.59;32.47;101371.66;4845808;29;20037;-74
2023/06/12 10:58:19;;;;;;;5.93;5.35;;;;;;;29.42;32.47;101378.72;4846285;29;20048;-73
2023/06/12 11:00:48;;;;;;;5.93;5.20;;;;;;;29.42;32.58;101378.72;4970478;23;20108;-74
2023/06/12 11:05:51;;;;;;;7.88;5.10;;;;;;;29.92;34.41;101370.97;4895281;23;20512;-76
2023/06/12 11:08:17;;;;;;;6.70;5.45;;;;;;;29.97;34.38;101369.81;4972891;23;20160;-78
2023/06/12 11:10:44;;;;;;;6.38;5.70;;;;;;;30.14;33.75;101368.09;4856233;29;20143;-75
2023/06/12 11:13:09;;;;;;;6.38;5.38;;;;;;;30.13;30.71;101364.53;4916790;23;20068;-75
2023/06/12 11:15:46;;;;;;;6.15;5.47;;;;;;;30.09;32.45;101375.53;5012005;23;20023;-75
2023/06/12 11:18:13;;;;;;;6.00;5.32;;;;;;;30.47;34.13;101364.66;5014318;23;20532;-75
2023/06/12 11:20:39;;;;;;;5.75;5.03;;;;;;;30.87;34.07;101357.19;5284082;23;20076;-75
2023/06/12 11:25:45;;;;;;;6.47;5.88;;;;;;;30.94;31.28;101357.72;5017393;23;20032;-75
2023/06/12 11:33:16;;;;;;;6.50;5.90;;;;;;;30.81;31.45;101347.59;4990579;23;19936;-75
2023/06/12 11:35:42;;;;;;;10.38;5.72;;;;;;;30.69;29.90;101364.38;4892351;23;20121;-75
2023/06/12 11:38:11;;;;;;;6.20;5.60;;;;;;;30.82;31.60;101352.03;5062333;23;20061;-76
2023/06/12 11:40:36;;;;;;;6.18;5.57;;;;;;;31.06;29.72;101348.13;4993969;23;20052;-75
2023/06/12 11:45:31;;;;;;;5.47;4.97;;;;;;;31.80;34.65;101347.56;4955251;23;20873;-75
2023/06/12 11:50:26;;;;;;;6.30;5.70;;;;;;;31.59;29.19;101340.72;5134173;23;20062;-75
2023/06/12 11:52:51;;;;;;;6.70;5.70;;;;;;;31.03;30.88;101347.34;5016703;23;20064;-75
2023/06/12 11:55:17;;;;;;;7.22;5.75;;;;;;;31.14;34.00;101340.50;5181980;23;21081;-75
2023/06/12 12:00:20;;;;;;;6.45;5.78;;;;;;;32.09;31.03;101326.13;4925032;23;20058;-75
2023/06/12 12:02:51;;;;;;;6.90;6.05;;;;;;;32.27;31.34;101323.28;5097687;23;20143;-77